createdAt,value
2019-02-12T00:00:39.862Z,2.90
2019-02-12T00:03:17.231Z,2.90
2019-02-12T00:05:50.216Z,2.80
2019-02-12T00:08:18.788Z,2.70
2019-02-12T00:10:49.172Z,2.70
2019-02-12T00:13:19.576Z,2.70
2019-02-12T00:15:51.180Z,2.70
2019-02-12T00:18:19.952Z,2.60
2019-02-12T00:20:49.093Z,2.60
2019-02-12T00:23:18.848Z,2.50
2019-02-12T00:25:49.144Z,2.50
2019-02-12T00:28:17.692Z,2.50
2019-02-12T00:30:46.155Z,2.50
2019-02-12T00:33:14.597Z,2.50
2019-02-12T00:35:43.258Z,2.50
2019-02-12T00:38:11.718Z,2.50
2019-02-12T00:40:40.218Z,2.50
2019-02-12T00:43:08.648Z,2.40
2019-02-12T00:45:37.169Z,2.40
2019-02-12T00:48:05.588Z,2.40
2019-02-12T00:50:34.097Z,2.40
2019-02-12T00:53:02.578Z,2.40
2019-02-12T00:55:31.034Z,2.40
2019-02-12T00:57:59.441Z,2.40
2019-02-12T01:00:27.894Z,2.40
2019-02-12T01:02:56.497Z,2.40
2019-02-12T01:05:25.030Z,2.50
2019-02-12T01:07:53.493Z,2.50
2019-02-12T01:10:21.984Z,2.50
2019-02-12T01:12:50.434Z,2.50
2019-02-12T01:15:18.884Z,2.60
2019-02-12T01:17:47.301Z,2.70
2019-02-12T01:20:16.638Z,2.70
2019-02-12T01:22:45.088Z,2.80
2019-02-12T01:25:13.576Z,2.80
2019-02-12T01:27:42.004Z,2.80
2019-02-12T01:30:13.118Z,2.90
2019-02-12T01:32:41.558Z,2.90
2019-02-12T01:35:10.032Z,2.90
2019-02-12T01:37:38.605Z,2.90
2019-02-12T01:40:10.281Z,2.90
2019-02-12T01:42:38.760Z,2.90
2019-02-12T01:45:09.229Z,2.90
2019-02-12T01:47:37.709Z,2.90
2019-02-12T01:50:08.484Z,2.90
2019-02-12T01:52:37.135Z,2.80
2019-02-12T01:55:05.804Z,2.80
2019-02-12T01:57:34.258Z,2.80
2019-02-12T02:00:02.839Z,2.70
2019-02-12T02:02:31.328Z,2.80
2019-02-12T02:04:59.748Z,2.70
2019-02-12T02:07:28.248Z,2.80
2019-02-12T02:09:56.702Z,2.80
2019-02-12T02:12:25.196Z,2.80
2019-02-12T02:14:53.737Z,2.80
2019-02-12T02:17:22.148Z,2.80
2019-02-12T02:19:50.546Z,2.80
2019-02-12T02:22:19.053Z,2.80
2019-02-12T02:24:48.205Z,2.80
2019-02-12T02:27:16.689Z,2.80
2019-02-12T02:29:45.164Z,2.70
2019-02-12T02:32:13.614Z,2.70
2019-02-12T02:34:42.118Z,2.70
2019-02-12T02:37:10.525Z,2.60
2019-02-12T02:39:39.061Z,2.70
2019-02-12T02:42:07.498Z,2.60
2019-02-12T02:44:35.909Z,2.60
2019-02-12T02:47:04.345Z,2.60
2019-02-12T02:49:32.748Z,2.60
2019-02-12T02:52:01.156Z,2.60
2019-02-12T02:54:29.588Z,2.50
2019-02-12T02:56:58.108Z,2.50
2019-02-12T02:59:26.525Z,2.50
2019-02-12T03:01:55.011Z,2.50
2019-02-12T03:04:23.455Z,2.40
2019-02-12T03:06:51.881Z,2.40
2019-02-12T03:09:20.542Z,2.40
2019-02-12T03:11:48.959Z,2.40
2019-02-12T03:14:17.369Z,2.30
2019-02-12T03:16:45.801Z,2.30
2019-02-12T03:19:14.223Z,2.40
2019-02-12T03:21:42.644Z,2.30
2019-02-12T03:24:11.107Z,2.20
2019-02-12T03:26:39.586Z,2.20
2019-02-12T03:29:08.056Z,2.20
2019-02-12T03:31:37.897Z,2.10
2019-02-12T03:34:06.342Z,2.10
2019-02-12T03:36:34.791Z,2.10
2019-02-12T03:39:04.468Z,2.10
2019-02-12T03:41:33.048Z,2.10
2019-02-12T03:44:01.452Z,2.20
2019-02-12T03:46:29.929Z,2.20
2019-02-12T03:48:58.369Z,2.10
2019-02-12T03:51:26.785Z,2.20
2019-02-12T03:53:55.235Z,2.10
2019-02-12T03:56:23.646Z,2.20
2019-02-12T03:58:52.198Z,2.20
2019-02-12T04:01:21.554Z,2.20
2019-02-12T04:03:50.840Z,2.30
2019-02-12T04:06:19.326Z,2.20
2019-02-12T04:08:47.857Z,2.30
2019-02-12T04:11:16.275Z,2.20
2019-02-12T04:13:44.699Z,2.30
2019-02-12T04:16:13.292Z,2.40
2019-02-12T04:18:41.705Z,2.50
2019-02-12T04:21:10.149Z,2.50
2019-02-12T04:23:38.558Z,2.50
2019-02-12T04:26:06.982Z,2.50
2019-02-12T04:28:37.101Z,2.50
2019-02-12T04:31:05.543Z,2.50
2019-02-12T04:33:33.953Z,2.50
2019-02-12T04:36:02.404Z,2.50
2019-02-12T04:38:30.824Z,2.50
2019-02-12T04:40:59.244Z,2.50
2019-02-12T04:43:27.663Z,2.50
2019-02-12T04:45:56.110Z,2.50
2019-02-12T04:48:24.563Z,2.50
2019-02-12T04:50:53.287Z,2.50
2019-02-12T04:53:21.720Z,2.40
2019-02-12T04:55:50.143Z,2.40
2019-02-12T04:58:19.242Z,2.40
2019-02-12T05:00:47.813Z,2.40
2019-02-12T05:03:16.467Z,2.30
2019-02-12T05:05:44.894Z,2.30
2019-02-12T05:08:13.301Z,2.20
2019-02-12T05:10:56.799Z,2.20
2019-02-12T05:13:25.258Z,2.30
2019-02-12T05:15:53.856Z,2.30
2019-02-12T05:18:22.309Z,2.30
2019-02-12T05:20:50.725Z,2.30
2019-02-12T05:23:19.193Z,2.20
2019-02-12T05:25:47.670Z,2.20
2019-02-12T05:28:16.099Z,2.20
2019-02-12T05:30:44.535Z,2.10
2019-02-12T05:33:12.970Z,2.10
2019-02-12T05:35:41.399Z,2.10
2019-02-12T05:38:09.818Z,2.10
2019-02-12T05:40:38.276Z,2.00
2019-02-12T05:43:06.704Z,2.00
2019-02-12T05:45:35.168Z,2.00
2019-02-12T05:48:03.585Z,2.00
2019-02-12T05:50:34.144Z,2.00
2019-02-12T05:53:02.361Z,2.00
2019-02-12T05:55:30.789Z,2.00
2019-02-12T05:58:00.039Z,2.00
2019-02-12T06:00:30.101Z,2.00
2019-02-12T06:02:58.514Z,2.00
2019-02-12T06:05:30.330Z,2.00
2019-02-12T06:07:58.788Z,2.00
2019-02-12T06:10:27.379Z,1.90
2019-02-12T06:12:55.844Z,1.90
2019-02-12T06:15:25.278Z,1.90
2019-02-12T06:17:53.693Z,1.90
2019-02-12T06:20:22.146Z,1.90
2019-02-12T06:22:50.595Z,1.90
2019-02-12T06:25:26.281Z,1.90
2019-02-12T06:27:57.574Z,1.90
2019-02-12T06:30:26.027Z,1.90
2019-02-12T06:32:54.477Z,1.90
2019-02-12T06:35:22.923Z,1.90
2019-02-12T06:37:51.388Z,1.90
2019-02-12T06:40:19.813Z,1.90
2019-02-12T06:42:48.264Z,1.80
2019-02-12T06:45:16.840Z,1.80
2019-02-12T06:47:45.253Z,1.80
2019-02-12T06:50:14.253Z,1.80
2019-02-12T06:52:43.167Z,1.80
2019-02-12T06:55:16.307Z,1.90
2019-02-12T06:57:48.482Z,1.90
2019-02-12T07:00:16.956Z,1.90
2019-02-12T07:03:13.353Z,1.90
2019-02-12T07:06:02.201Z,1.90
2019-02-12T07:08:54.729Z,1.90
2019-02-12T07:11:44.211Z,2.00
2019-02-12T07:14:38.329Z,2.00
2019-02-12T07:17:21.518Z,2.10
2019-02-12T07:20:10.295Z,2.10
2019-02-12T07:22:53.269Z,2.20
2019-02-12T07:25:36.048Z,2.40
2019-02-12T07:28:23.207Z,2.50
2019-02-12T07:31:12.360Z,2.50
2019-02-12T07:33:46.950Z,2.60
2019-02-12T07:36:24.131Z,2.70
2019-02-12T07:39:01.300Z,2.70
2019-02-12T07:41:51.159Z,2.70
2019-02-12T07:44:25.436Z,2.80
2019-02-12T07:46:56.945Z,2.80
2019-02-12T07:49:41.125Z,2.90
2019-02-12T07:52:31.217Z,3.00
2019-02-12T07:55:20.523Z,3.00
2019-02-12T07:57:57.679Z,3.10
2019-02-12T08:00:44.830Z,3.20
2019-02-12T08:03:31.638Z,3.50
2019-02-12T08:06:23.107Z,3.60
2019-02-12T08:09:12.409Z,3.60
2019-02-12T08:12:01.977Z,3.90
2019-02-12T08:14:39.765Z,3.80
2019-02-12T08:17:28.484Z,3.90
2019-02-12T08:20:17.572Z,3.90
2019-02-12T08:23:19.228Z,3.90
2019-02-12T08:25:56.901Z,3.90
2019-02-12T08:28:42.703Z,3.80
2019-02-12T08:31:33.865Z,4.00
2019-02-12T08:34:09.786Z,4.10
2019-02-12T08:36:45.457Z,4.10
2019-02-12T08:39:19.894Z,4.20
2019-02-12T08:42:06.522Z,4.20
2019-02-12T08:44:44.123Z,4.20
2019-02-12T08:47:18.575Z,4.20
2019-02-12T08:49:51.145Z,4.10
2019-02-12T08:52:36.226Z,4.20
2019-02-12T08:55:25.801Z,4.20
2019-02-12T08:58:06.329Z,4.20
2019-02-12T09:01:05.373Z,4.30
2019-02-12T09:04:08.727Z,4.30
2019-02-12T09:06:43.829Z,4.40
2019-02-12T09:09:38.209Z,4.40
2019-02-12T09:12:37.717Z,4.50
2019-02-12T09:15:29.345Z,4.50
2019-02-12T09:18:09.892Z,4.60
2019-02-12T09:20:56.243Z,4.70
2019-02-12T09:23:41.844Z,4.90
2019-02-12T09:26:29.935Z,5.10
2019-02-12T09:29:26.393Z,5.10
2019-02-12T09:32:08.439Z,5.20
2019-02-12T09:34:44.655Z,5.20
2019-02-12T09:37:36.898Z,5.10
2019-02-12T09:40:27.856Z,5.10
2019-02-12T09:45:44.449Z,5.00
2019-02-12T09:48:24.653Z,5.00
2019-02-12T09:50:58.838Z,5.00
2019-02-12T09:53:42.268Z,5.20
2019-02-12T09:56:16.965Z,5.20
2019-02-12T09:59:06.672Z,5.20
2019-02-12T10:01:46.892Z,5.20
2019-02-12T10:04:29.648Z,5.30
2019-02-12T10:07:08.958Z,5.30
2019-02-12T10:10:00.358Z,5.40
2019-02-12T10:12:42.003Z,5.50
2019-02-12T10:15:17.040Z,5.60
2019-02-12T10:18:05.486Z,5.70
2019-02-12T10:21:02.310Z,5.80
2019-02-12T10:23:50.324Z,5.80
2019-02-12T10:26:27.485Z,5.80
2019-02-12T10:28:58.995Z,5.80
2019-02-12T10:31:27.932Z,5.90
2019-02-12T10:34:01.290Z,5.90
2019-02-12T10:36:34.671Z,5.90
2019-02-12T10:39:08.185Z,6.00
2019-02-12T10:41:33.217Z,6.00
2019-02-12T10:44:02.665Z,6.00
2019-02-12T10:46:35.033Z,6.10
2019-02-12T10:49:03.577Z,6.20
2019-02-12T10:51:33.788Z,6.20
2019-02-12T10:54:04.347Z,6.20
2019-02-12T10:56:36.272Z,6.30
2019-02-12T10:59:06.022Z,6.50
2019-02-12T11:01:34.469Z,6.60
2019-02-12T11:04:04.958Z,6.60
2019-02-12T11:06:37.579Z,6.40
2019-02-12T11:09:09.503Z,6.60
2019-02-12T11:11:37.904Z,6.70
2019-02-12T11:14:06.450Z,6.60
2019-02-12T11:16:38.803Z,6.70
2019-02-12T11:24:20.419Z,6.70
2019-02-12T11:26:49.776Z,6.80
2019-02-12T11:29:18.258Z,6.90
2019-02-12T11:31:48.768Z,7.10
2019-02-12T11:34:18.557Z,7.10
2019-02-12T11:36:47.245Z,7.00
2019-02-12T11:39:15.994Z,6.90
2019-02-12T11:41:48.076Z,7.10
2019-02-12T11:44:18.566Z,7.10
2019-02-12T11:46:46.685Z,7.00
2019-02-12T11:49:16.835Z,7.10
2019-02-12T11:51:50.511Z,7.20
2019-02-12T11:54:23.780Z,7.20
2019-02-12T11:56:57.134Z,7.20
2019-02-12T11:59:26.309Z,7.40
2019-02-12T12:01:55.681Z,7.10
2019-02-12T12:04:25.729Z,7.10
2019-02-12T12:06:59.812Z,7.50
2019-02-12T12:09:33.555Z,7.40
2019-02-12T12:12:05.477Z,7.30
2019-02-12T12:14:33.931Z,7.30
2019-02-12T12:17:02.457Z,7.40
2019-02-12T12:19:32.848Z,7.60
2019-02-12T12:22:06.297Z,7.50
2019-02-12T12:24:34.736Z,7.50
2019-02-12T12:27:03.198Z,7.50
2019-02-12T12:29:34.157Z,7.60
2019-02-12T12:32:07.460Z,7.60
2019-02-12T12:34:38.092Z,7.50
2019-02-12T12:37:06.094Z,7.60
2019-02-12T12:39:34.910Z,7.70
2019-02-12T12:42:08.279Z,7.90
2019-02-12T12:44:42.504Z,7.90
2019-02-12T12:47:07.809Z,8.00
2019-02-12T12:49:37.182Z,7.80
2019-02-12T12:52:10.125Z,8.00
2019-02-12T12:54:46.045Z,7.80
2019-02-12T12:57:10.025Z,7.90
2019-02-12T12:59:38.442Z,7.90
2019-02-12T13:02:11.237Z,7.90
2019-02-12T13:04:44.261Z,7.90
2019-02-12T13:07:14.045Z,7.90
2019-02-12T13:09:42.531Z,7.90
2019-02-12T13:12:14.022Z,7.90
2019-02-12T13:14:46.515Z,7.90
2019-02-12T13:17:19.239Z,8.10
2019-02-12T13:19:47.944Z,8.30
2019-02-12T13:22:16.760Z,8.50
2019-02-12T13:24:47.728Z,8.60
2019-02-12T13:27:19.972Z,8.60
2019-02-12T13:29:50.403Z,8.50
2019-02-12T13:32:18.593Z,8.60
2019-02-12T13:34:48.254Z,8.50
2019-02-12T13:37:21.442Z,8.40
2019-02-12T13:39:54.430Z,8.20
2019-02-12T13:42:22.897Z,8.10
2019-02-12T13:44:51.616Z,8.10
2019-02-12T13:47:24.135Z,8.00
2019-02-12T13:49:59.292Z,8.20
2019-02-12T13:52:31.416Z,8.20
2019-02-12T13:55:04.444Z,8.20
2019-02-12T13:57:35.092Z,8.20
2019-02-12T14:00:11.640Z,8.20
2019-02-12T14:02:40.068Z,8.20
2019-02-12T14:05:24.738Z,8.20
2019-02-12T14:07:56.246Z,8.30
2019-02-12T14:10:30.548Z,8.40
2019-02-12T14:13:04.820Z,8.40
2019-02-12T14:15:38.088Z,8.50
2019-02-12T14:18:11.098Z,8.60
2019-02-12T14:20:44.397Z,8.60
2019-02-12T14:23:09.662Z,8.60
2019-02-12T14:25:40.074Z,8.60
2019-02-12T14:28:13.163Z,8.60
2019-02-12T14:30:48.486Z,8.50
2019-02-12T14:33:21.844Z,8.40
2019-02-12T14:35:58.604Z,8.40
2019-02-12T14:38:29.935Z,8.40
2019-02-12T14:41:02.478Z,8.30
2019-02-12T14:43:36.608Z,8.20
2019-02-12T14:46:12.555Z,8.20
2019-02-12T14:48:48.186Z,8.30
2019-02-12T14:51:20.610Z,8.30
2019-02-12T14:53:53.316Z,8.20
2019-02-12T14:56:26.421Z,8.20
2019-02-12T14:58:54.834Z,8.30
2019-02-12T15:01:23.329Z,8.20
2019-02-12T15:03:54.821Z,8.20
2019-02-12T15:06:28.304Z,8.20
2019-02-12T15:09:01.550Z,8.20
2019-02-12T15:11:31.335Z,8.20
2019-02-12T15:13:59.819Z,8.20
2019-02-12T15:16:31.420Z,8.10
2019-02-12T15:19:03.850Z,8.10
2019-02-12T15:21:34.567Z,8.00
2019-02-12T15:24:03.150Z,7.90
2019-02-12T15:26:31.603Z,7.80
2019-02-12T15:29:06.226Z,7.80
2019-02-12T15:31:39.717Z,8.00
2019-02-12T15:34:18.128Z,8.30
2019-02-12T15:36:47.507Z,8.40
2019-02-12T15:39:20.288Z,8.50
2019-02-12T15:41:50.228Z,8.40
2019-02-12T15:44:19.011Z,8.40
2019-02-12T15:46:56.525Z,8.60
2019-02-12T15:49:24.972Z,8.70
2019-02-12T15:51:56.763Z,8.70
2019-02-12T15:54:29.877Z,8.30
2019-02-12T15:57:01.877Z,8.10
2019-02-12T15:59:31.561Z,7.90
2019-02-12T16:02:00.590Z,7.70
2019-02-12T16:04:31.499Z,7.60
2019-02-12T16:07:01.833Z,7.50
2019-02-12T16:09:31.253Z,7.50
2019-02-12T16:12:02.003Z,7.40
2019-02-12T16:14:44.514Z,7.30
2019-02-12T16:17:14.476Z,7.20
2019-02-12T16:19:45.091Z,7.00
2019-02-12T16:22:13.646Z,6.90
2019-02-12T16:24:42.104Z,6.90
2019-02-12T16:27:10.577Z,6.80
2019-02-12T16:29:40.576Z,6.80
2019-02-12T16:32:09.099Z,6.80
2019-02-12T16:37:23.756Z,6.70
2019-02-12T16:39:52.431Z,7.00
2019-02-12T16:42:20.872Z,7.00
2019-02-12T16:44:49.339Z,6.80
2019-02-12T16:47:17.783Z,6.60
2019-02-12T16:49:46.316Z,6.40
2019-02-12T16:52:20.642Z,6.30
2019-02-12T16:54:44.972Z,6.20
2019-02-12T16:57:13.434Z,6.20
2019-02-12T16:59:41.893Z,6.10
2019-02-12T17:02:10.294Z,6.00
2019-02-12T17:04:38.797Z,6.00
2019-02-12T17:07:07.235Z,5.90
2019-02-12T17:09:35.697Z,6.00
2019-02-12T17:12:04.496Z,6.20
2019-02-12T17:14:32.951Z,6.40
2019-02-12T17:17:01.392Z,6.20
2019-02-12T17:19:29.815Z,6.10
2019-02-12T17:21:58.281Z,6.10
2019-02-12T17:24:26.760Z,6.00
2019-02-12T17:26:55.216Z,6.00
2019-02-12T17:29:23.620Z,5.90
2019-02-12T17:31:52.175Z,5.80
2019-02-12T17:34:20.581Z,5.70
2019-02-12T17:36:49.000Z,5.70
2019-02-12T17:39:17.414Z,5.70
2019-02-12T17:41:45.854Z,5.60
2019-02-12T17:44:14.298Z,5.50
2019-02-12T17:46:42.742Z,5.50
2019-02-12T17:49:11.167Z,5.50
2019-02-12T17:51:40.090Z,5.50
2019-02-12T17:54:08.525Z,5.40
2019-02-12T17:56:36.931Z,5.40
2019-02-12T17:59:05.387Z,5.30
2019-02-12T18:01:34.206Z,5.50
2019-02-12T18:04:02.617Z,5.50
2019-02-12T18:06:31.044Z,5.30
2019-02-12T18:09:01.029Z,5.20
2019-02-12T18:11:29.573Z,5.00
2019-02-12T18:13:58.049Z,5.00
2019-02-12T18:16:26.498Z,4.90
2019-02-12T18:18:54.919Z,4.80
2019-02-12T18:21:23.349Z,4.80
2019-02-12T18:23:51.785Z,4.90
2019-02-12T18:26:20.237Z,4.80
2019-02-12T18:28:48.772Z,4.70
2019-02-12T18:31:17.193Z,4.60
2019-02-12T18:33:45.627Z,4.60
2019-02-12T18:36:14.071Z,4.60
2019-02-12T18:38:42.520Z,4.50
2019-02-12T18:41:10.987Z,4.50
2019-02-12T18:43:39.475Z,4.50
2019-02-12T18:46:07.895Z,4.50
2019-02-12T18:48:36.600Z,4.50
2019-02-12T18:51:05.109Z,4.40
2019-02-12T18:53:33.538Z,4.40
2019-02-12T18:56:02.035Z,4.30
2019-02-12T18:58:30.585Z,4.30
2019-02-12T19:00:59.108Z,4.20
2019-02-12T19:03:27.540Z,4.10
2019-02-12T19:05:56.006Z,4.10
2019-02-12T19:08:25.365Z,4.10
2019-02-12T19:10:53.920Z,4.00
2019-02-12T19:13:22.406Z,4.00
2019-02-12T19:15:51.162Z,4.00
2019-02-12T19:18:22.417Z,4.00
2019-02-12T19:20:50.913Z,3.90
2019-02-12T19:23:23.686Z,3.90
2019-02-12T19:25:52.205Z,3.90
2019-02-12T19:28:20.625Z,3.80
2019-02-12T19:30:49.101Z,3.90
2019-02-12T19:33:17.540Z,4.50
2019-02-12T19:35:46.058Z,5.40
2019-02-12T19:38:14.468Z,5.80
2019-02-12T19:40:42.914Z,6.20
2019-02-12T19:43:12.361Z,5.40
2019-02-12T19:45:40.822Z,4.90
2019-02-12T19:48:09.291Z,4.40
2019-02-12T19:50:37.722Z,4.10
2019-02-12T19:53:07.515Z,4.00
2019-02-12T19:55:35.952Z,3.90
2019-02-12T19:58:04.714Z,3.80
2019-02-12T20:00:33.308Z,3.70
2019-02-12T20:03:01.731Z,3.70
2019-02-12T20:05:30.202Z,3.70
2019-02-12T20:07:58.698Z,3.70
2019-02-12T20:10:27.280Z,3.60
2019-02-12T20:12:55.731Z,3.50
2019-02-12T20:15:24.145Z,3.50
2019-02-12T20:17:52.604Z,3.40
2019-02-12T20:20:21.074Z,3.50
2019-02-12T20:22:49.501Z,3.40
2019-02-12T20:25:17.948Z,3.40
2019-02-12T20:27:46.374Z,3.30
2019-02-12T20:30:19.143Z,3.40
2019-02-12T20:32:47.618Z,3.40
2019-02-12T20:35:23.209Z,3.30
2019-02-12T20:37:50.817Z,3.10
2019-02-12T20:40:19.423Z,3.30
2019-02-12T20:42:47.984Z,3.20
2019-02-12T20:45:19.810Z,3.20
2019-02-12T20:47:48.557Z,3.20
2019-02-12T20:50:20.894Z,3.20
2019-02-12T20:52:54.906Z,3.10
2019-02-12T20:55:23.793Z,3.00
2019-02-12T20:58:01.490Z,3.10
2019-02-12T21:00:32.191Z,3.10
2019-02-12T21:03:03.565Z,3.00
2019-02-12T21:05:34.682Z,3.00
2019-02-12T21:08:05.140Z,2.90
2019-02-12T21:10:33.910Z,2.90
2019-02-12T21:13:02.724Z,2.90
2019-02-12T21:15:31.763Z,2.80
2019-02-12T21:18:00.264Z,2.70
2019-02-12T21:20:29.176Z,2.70
2019-02-12T21:23:02.241Z,2.80
2019-02-12T21:25:30.887Z,2.80
2019-02-12T21:28:01.027Z,2.90
2019-02-12T21:30:33.492Z,2.80
2019-02-12T21:33:01.935Z,2.80
2019-02-12T21:35:30.344Z,2.80
2019-02-12T21:38:00.111Z,2.80
2019-02-12T21:40:29.463Z,2.80
2019-02-12T21:42:57.953Z,2.80
2019-02-12T21:45:26.411Z,2.80
2019-02-12T21:47:54.918Z,2.90
2019-02-12T21:50:23.327Z,2.90
2019-02-12T21:52:51.883Z,2.90
2019-02-12T21:55:21.471Z,2.90
2019-02-12T21:57:49.907Z,3.10
2019-02-12T22:00:19.626Z,3.90
2019-02-12T22:02:48.063Z,4.30
2019-02-12T22:05:17.255Z,4.50
2019-02-12T22:07:45.717Z,4.70
2019-02-12T22:10:22.334Z,4.70
2019-02-12T22:12:50.829Z,4.80
2019-02-12T22:15:19.293Z,4.90
2019-02-12T22:17:47.713Z,4.90
2019-02-12T22:20:17.795Z,4.90
2019-02-12T22:22:46.253Z,5.00
2019-02-12T22:25:14.757Z,5.00
2019-02-12T22:27:43.238Z,5.00
2019-02-12T22:30:16.815Z,5.20
2019-02-12T22:32:45.267Z,5.20
2019-02-12T22:35:14.660Z,5.20
2019-02-12T22:37:43.344Z,5.10
2019-02-12T22:40:13.616Z,5.00
2019-02-12T22:42:42.075Z,5.00
2019-02-12T22:45:18.486Z,5.00
2019-02-12T22:47:46.928Z,5.00
2019-02-12T22:50:15.412Z,5.00
2019-02-12T22:52:43.864Z,5.10
2019-02-12T22:55:12.404Z,5.10
2019-02-12T22:57:48.556Z,5.00
2019-02-12T23:00:26.803Z,5.10
2019-02-12T23:02:55.257Z,5.20
2019-02-12T23:05:23.671Z,4.50
2019-02-12T23:07:52.114Z,3.90
2019-02-12T23:10:20.533Z,3.60
2019-02-12T23:12:48.969Z,3.40
2019-02-12T23:15:17.376Z,3.30
2019-02-12T23:17:46.069Z,3.20
2019-02-12T23:20:14.675Z,3.00
2019-02-12T23:22:43.102Z,3.00
2019-02-12T23:25:11.548Z,3.00
2019-02-12T23:27:40.022Z,3.00
2019-02-12T23:30:10.215Z,2.90
2019-02-12T23:32:38.667Z,3.00
2019-02-12T23:35:07.216Z,2.90
2019-02-12T23:37:35.650Z,2.80
2019-02-12T23:40:04.748Z,2.90
2019-02-12T23:42:33.172Z,2.80
2019-02-12T23:45:01.596Z,2.80
2019-02-12T23:47:30.032Z,2.80
2019-02-12T23:49:58.454Z,2.80
2019-02-12T23:52:26.949Z,2.70
2019-02-12T23:54:55.374Z,2.70
2019-02-12T23:57:23.818Z,2.80
2019-02-12T23:59:52.228Z,2.70
